Time;durP1;ratioP1;P1;durP2;ratioP2;P2;SDS_P1;SDS_P2;PMS_P1;PMS_P2;Temp;Humidity;BMP_temperature;BMP_pressure;BME280_temperature;BME280_humidity;BME280_pressure;Samples;Min_cycle;Max_cycle;Signal;HPM_P1;HPM_P2
2021/12/14 00:01:00;;;;;;;8.23;6.95;;;9.00;99.90;;;;;;5033294;28;20218;-56
2021/12/14 00:03:30;;;;;;;7.35;6.13;;;9.00;99.90;;;;;;5033510;28;20182;-56
2021/12/14 00:05:58;;;;;;;9.20;7.30;;;9.00;99.90;;;;;;5033330;28;20195;-57
2021/12/14 00:08:26;;;;;;;9.20;6.93;;;9.00;99.90;;;;;;5033438;28;20714;-56
2021/12/14 00:11:23;;;;;;;8.90;6.15;;;9.00;99.90;;;;;;5033427;28;20242;-56
2021/12/14 00:13:57;;;;;;;7.88;5.90;;;9.00;99.90;;;;;;5033540;28;20210;-55
2021/12/14 00:16:25;;;;;;;7.40;6.35;;;9.00;99.90;;;;;;5033284;28;20190;-56
2021/12/14 00:18:52;;;;;;;8.63;6.82;;;9.00;99.90;;;;;;5033090;28;20230;-56
2021/12/14 00:21:28;;;;;;;6.80;6.10;;;8.90;99.90;;;;;;5033229;28;20202;-56
2021/12/14 00:24:10;;;;;;;6.43;5.80;;;8.90;99.90;;;;;;5033860;28;20178;-56
2021/12/14 00:26:42;;;;;;;7.07;5.53;;;8.90;99.90;;;;;;5037744;28;20213;-56
2021/12/14 00:29:17;;;;;;;8.77;5.72;;;8.90;99.90;;;;;;5038011;28;20229;-56
2021/12/14 00:31:45;;;;;;;7.20;5.80;;;8.90;99.90;;;;;;5038665;28;20197;-56
2021/12/14 00:34:20;;;;;;;6.60;5.85;;;8.90;99.90;;;;;;5038184;28;20701;-56
2021/12/14 00:36:48;;;;;;;7.13;5.28;;;8.90;99.90;;;;;;5037261;28;20197;-56
2021/12/14 00:39:15;;;;;;;6.97;5.55;;;8.90;99.90;;;;;;5037128;28;20218;-55
2021/12/14 00:41:45;;;;;;;8.45;6.55;;;8.90;99.90;;;;;;5037244;28;20206;-56
2021/12/14 00:44:13;;;;;;;7.10;5.97;;;8.90;99.90;;;;;;5036946;28;20198;-55
2021/12/14 00:46:41;;;;;;;7.18;6.00;;;8.90;99.90;;;;;;5036631;28;20209;-57
2021/12/14 00:49:10;;;;;;;6.40;5.80;;;8.90;99.90;;;;;;5038038;28;20226;-56
2021/12/14 00:51:37;;;;;;;8.27;5.45;;;8.90;99.90;;;;;;5039009;28;20209;-56
2021/12/14 00:54:06;;;;;;;8.48;5.75;;;8.90;99.90;;;;;;5039043;28;20241;-56
2021/12/14 00:56:34;;;;;;;9.27;5.75;;;8.90;99.90;;;;;;5038116;28;20577;-56
2021/12/14 00:59:01;;;;;;;7.82;5.82;;;8.90;99.90;;;;;;5040817;28;20222;-57
2021/12/14 01:01:39;;;;;;;7.57;5.28;;;8.90;99.90;;;;;;5042577;28;20205;-56
2021/12/14 01:04:12;;;;;;;7.85;5.72;;;8.90;99.90;;;;;;5040740;28;20187;-56
2021/12/14 01:06:45;;;;;;;7.38;5.97;;;8.90;99.90;;;;;;5039661;28;20187;-55
2021/12/14 01:09:13;;;;;;;6.32;5.18;;;8.90;99.90;;;;;;5040143;28;20301;-56
2021/12/14 01:11:45;;;;;;;7.13;6.22;;;8.90;99.90;;;;;;5039079;28;20206;-56
2021/12/14 01:14:16;;;;;;;6.88;6.05;;;8.90;99.90;;;;;;5038602;28;20209;-56
2021/12/14 01:16:54;;;;;;;6.45;5.75;;;8.90;99.90;;;;;;5038915;28;20197;-56
2021/12/14 01:19:26;;;;;;;8.55;5.85;;;8.90;99.90;;;;;;5038748;28;20683;-56
2021/12/14 01:22:18;;;;;;;8.07;5.90;;;8.80;99.90;;;;;;5039912;28;20206;-56
2021/12/14 01:25:03;;;;;;;8.43;6.53;;;8.80;99.90;;;;;;5039055;28;20186;-55
2021/12/14 01:27:38;;;;;;;6.53;5.47;;;8.90;99.90;;;;;;5038491;28;20202;-58
2021/12/14 01:30:12;;;;;;;6.88;5.38;;;8.90;99.90;;;;;;5061207;22;20230;-59
2021/12/14 01:32:44;;;;;;;7.90;5.75;;;8.90;99.90;;;;;;5035841;28;20189;-61
2021/12/14 01:35:14;;;;;;;7.25;6.43;;;8.90;99.90;;;;;;5035483;28;20210;-61
2021/12/14 01:37:49;;;;;;;6.95;5.63;;;8.90;99.90;;;;;;5035543;28;20584;-60
2021/12/14 01:40:46;;;;;;;6.68;5.75;;;8.90;99.90;;;;;;5035820;28;20631;-61
2021/12/14 01:43:08;;;;;;;12.60;6.70;;;8.90;99.90;;;;;;5035610;28;20256;-60
2021/12/14 01:45:35;;;;;;;8.13;6.05;;;8.90;99.90;;;;;;5035939;28;20226;-60
2021/12/14 01:48:05;;;;;;;7.90;6.30;;;8.90;99.90;;;;;;5035477;28;20198;-61
2021/12/14 01:50:38;;;;;;;6.38;5.70;;;8.90;99.90;;;;;;5035458;28;20198;-61
2021/12/14 01:53:06;;;;;;;9.15;6.80;;;8.90;99.90;;;;;;5035346;28;20227;-59
2021/12/14 01:55:36;;;;;;;10.35;7.13;;;8.90;99.90;;;;;;5035663;28;20234;-61
2021/12/14 01:58:06;;;;;;;7.88;6.32;;;8.80;99.90;;;;;;5035221;28;20195;-61
2021/12/14 02:00:39;;;;;;;9.23;7.03;;;8.80;99.90;;;;;;5035460;28;20210;-60
2021/12/14 02:03:10;;;;;;;6.88;6.07;;;8.80;99.90;;;;;;5035646;28;20187;-60
2021/12/14 02:05:41;;;;;;;9.98;5.95;;;8.80;99.90;;;;;;5036258;28;20186;-61
2021/12/14 02:08:17;;;;;;;6.95;6.22;;;8.80;99.90;;;;;;5035701;28;20194;-60
2021/12/14 02:10:44;;;;;;;10.35;6.82;;;8.80;99.90;;;;;;5036226;28;20312;-61
2021/12/14 02:13:11;;;;;;;9.65;6.68;;;8.80;99.90;;;;;;5035799;28;20214;-60
2021/12/14 02:15:41;;;;;;;9.65;6.65;;;8.80;99.90;;;;;;5035899;28;20222;-61
2021/12/14 02:18:14;;;;;;;8.30;6.50;;;8.80;99.90;;;;;;5035264;28;20198;-61
2021/12/14 02:20:46;;;;;;;6.82;6.13;;;8.70;99.90;;;;;;5035062;28;20567;-61
2021/12/14 02:23:13;;;;;;;8.25;6.68;;;8.70;99.90;;;;;;5034896;28;20193;-61
2021/12/14 02:25:41;;;;;;;6.90;6.18;;;8.70;99.90;;;;;;5034819;28;20206;-61
2021/12/14 02:28:11;;;;;;;7.63;6.63;;;8.70;99.90;;;;;;5034628;28;20697;-61
2021/12/14 02:30:42;;;;;;;7.55;6.55;;;8.70;99.90;;;;;;5034994;28;20194;-61
2021/12/14 02:33:17;;;;;;;7.80;6.32;;;8.70;99.90;;;;;;5035016;28;20187;-61
2021/12/14 02:35:47;;;;;;;9.52;7.13;;;8.70;99.90;;;;;;5034787;28;20206;-60
2021/12/14 02:38:17;;;;;;;8.68;7.55;;;8.70;99.90;;;;;;5034771;28;20230;-60
2021/12/14 02:40:54;;;;;;;7.90;6.57;;;8.60;99.90;;;;;;5034745;28;20199;-61
2021/12/14 02:43:23;;;;;;;9.77;7.28;;;8.60;99.90;;;;;;5034787;28;20193;-59
2021/12/14 02:45:52;;;;;;;9.85;6.97;;;8.60;99.90;;;;;;5034517;28;20201;-60
2021/12/14 02:48:19;;;;;;;7.88;6.60;;;8.60;99.90;;;;;;5033413;28;20670;-60
2021/12/14 02:50:48;;;;;;;10.07;6.45;;;8.60;99.90;;;;;;5034444;28;20670;-60
2021/12/14 02:53:15;;;;;;;7.35;6.55;;;8.60;99.90;;;;;;5034560;28;20206;-60
2021/12/14 02:55:43;;;;;;;8.10;6.80;;;8.60;99.90;;;;;;5034408;28;20229;-60
2021/12/14 02:58:10;;;;;;;8.50;6.55;;;8.60;99.90;;;;;;5034076;28;20202;-60
2021/12/14 03:00:41;;;;;;;7.43;6.60;;;8.60;99.90;;;;;;5034542;28;20202;-60
2021/12/14 03:03:10;;;;;;;8.02;6.45;;;8.60;99.90;;;;;;5034450;28;20187;-61
2021/12/14 03:05:41;;;;;;;10.30;6.68;;;8.60;99.90;;;;;;5034283;28;20237;-61
2021/12/14 03:08:15;;;;;;;8.15;6.53;;;8.60;99.90;;;;;;5034194;28;20551;-60
2021/12/14 03:10:55;;;;;;;7.97;6.22;;;8.60;99.90;;;;;;5034183;28;20190;-61
2021/12/14 03:13:24;;;;;;;7.25;5.90;;;8.60;99.90;;;;;;5033863;28;20277;-60
2021/12/14 03:15:54;;;;;;;6.70;6.00;;;8.60;99.90;;;;;;5033970;28;20323;-60
2021/12/14 03:18:24;;;;;;;6.40;5.65;;;8.60;99.90;;;;;;5034139;28;20237;-60
2021/12/14 03:20:54;;;;;;;7.38;5.95;;;8.50;99.90;;;;;;5033996;28;20187;-61
2021/12/14 03:23:26;;;;;;;7.63;5.55;;;8.60;99.90;;;;;;5033643;28;20666;-61
2021/12/14 03:25:57;;;;;;;8.27;5.65;;;8.60;99.90;;;;;;5033973;28;20281;-61
2021/12/14 03:28:27;;;;;;;7.07;6.30;;;8.50;99.90;;;;;;5033351;28;20245;-61
2021/12/14 03:31:04;;;;;;;7.53;5.95;;;8.50;99.90;;;;;;5033638;28;20643;-61
2021/12/14 03:33:35;;;;;;;7.55;6.57;;;8.50;99.90;;;;;;5033791;28;20205;-61
2021/12/14 03:36:07;;;;;;;7.03;5.93;;;8.50;99.90;;;;;;5033835;28;20214;-61
2021/12/14 03:38:42;;;;;;;7.18;5.97;;;8.50;99.90;;;;;;5033757;28;20226;-61
2021/12/14 03:41:13;;;;;;;8.20;6.57;;;8.50;99.90;;;;;;5033453;28;20197;-61
2021/12/14 03:43:43;;;;;;;8.48;6.50;;;8.50;99.90;;;;;;5033395;28;20293;-61
2021/12/14 03:46:11;;;;;;;7.05;6.28;;;8.50;99.90;;;;;;5033660;28;20178;-61
2021/12/14 03:48:40;;;;;;;6.95;6.25;;;8.50;99.90;;;;;;5033318;28;20714;-61
2021/12/14 03:51:07;;;;;;;7.05;6.15;;;8.50;99.90;;;;;;5033334;28;20205;-61
2021/12/14 03:53:36;;;;;;;7.63;6.78;;;8.50;99.90;;;;;;5033824;28;20217;-61
2021/12/14 03:56:07;;;;;;;7.88;6.57;;;8.50;99.90;;;;;;5033396;28;20222;-61
2021/12/14 03:58:39;;;;;;;8.63;7.70;;;8.50;99.90;;;;;;5033220;28;20233;-60
2021/12/14 04:01:11;;;;;;;8.00;6.32;;;8.50;99.90;;;;;;5033659;28;20278;-61
2021/12/14 04:03:39;;;;;;;8.10;6.95;;;8.50;99.90;;;;;;5033353;28;20198;-61
2021/12/14 04:09:02;;;;;;;6.57;5.97;;;8.60;99.90;;;;;;5091589;27;20940;-61
2021/12/14 04:11:30;;;;;;;7.30;5.88;;;8.60;99.90;;;;;;5090736;28;20211;-61
2021/12/14 04:13:57;;;;;;;7.25;6.32;;;8.60;99.90;;;;;;5090959;28;20235;-61
2021/12/14 04:16:26;;;;;;;7.50;6.70;;;8.60;99.90;;;;;;5090829;28;20200;-61
2021/12/14 04:18:55;;;;;;;6.80;6.15;;;8.60;99.90;;;;;;5090914;28;20216;-61
2021/12/14 04:21:22;;;;;;;7.45;6.28;;;8.60;99.90;;;;;;5092981;28;20211;-61
2021/12/14 04:23:52;;;;;;;6.28;5.68;;;8.60;99.90;;;;;;5090522;28;20211;-61
2021/12/14 04:26:20;;;;;;;6.45;5.70;;;8.60;99.90;;;;;;5091846;28;20203;-61
2021/12/14 04:28:51;;;;;;;8.13;6.05;;;8.60;99.90;;;;;;5092189;28;20228;-61
2021/12/14 04:31:18;;;;;;;7.32;5.20;;;8.60;99.90;;;;;;5093554;28;20185;-61
2021/12/14 04:33:47;;;;;;;7.82;6.10;;;8.60;99.90;;;;;;5094298;28;20204;-60
2021/12/14 04:36:20;;;;;;;5.95;5.30;;;8.60;99.90;;;;;;5093246;28;20707;-60
2021/12/14 04:38:53;;;;;;;6.85;6.15;;;8.60;99.90;;;;;;5096103;28;20279;-60
2021/12/14 04:52:29;;;;;;;6.47;5.88;;;8.60;99.90;;;;;;5092754;28;20188;-61
2021/12/14 04:55:01;;;;;;;6.97;5.80;;;8.60;99.90;;;;;;5091745;28;20185;-61
2021/12/14 04:57:32;;;;;;;6.60;5.75;;;8.50;99.90;;;;;;5090994;28;20184;-61
2021/12/14 05:00:14;;;;;;;7.07;6.38;;;8.50;99.90;;;;;;5091099;28;20220;-60
2021/12/14 05:02:42;;;;;;;6.50;5.85;;;8.50;99.90;;;;;;5090923;28;20280;-61
2021/12/14 05:05:10;;;;;;;5.88;5.05;;;8.50;99.90;;;;;;5091460;28;20209;-61
2021/12/14 05:07:59;;;;;;;6.18;5.50;;;8.50;99.90;;;;;;5090865;28;20227;-62
2021/12/14 05:10:25;;;;;;;7.72;5.93;;;8.50;99.90;;;;;;5091080;28;20272;-60
2021/12/14 05:12:55;;;;;;;6.95;6.00;;;8.50;99.90;;;;;;5091305;28;20196;-61
2021/12/14 05:15:22;;;;;;;6.63;5.47;;;8.50;99.90;;;;;;5090726;28;20204;-61
2021/12/14 05:17:49;;;;;;;7.10;6.40;;;8.40;99.90;;;;;;5090539;28;20200;-60
2021/12/14 05:20:18;;;;;;;7.85;6.40;;;8.50;99.90;;;;;;5076892;28;20221;-61
2021/12/14 05:22:47;;;;;;;7.47;6.72;;;8.40;99.90;;;;;;5076261;28;20205;-61
2021/12/14 05:25:21;;;;;;;8.15;6.95;;;8.50;99.90;;;;;;5078533;28;20240;-60
2021/12/14 05:27:51;;;;;;;7.13;6.43;;;8.50;99.90;;;;;;5078445;28;20205;-61
2021/12/14 05:30:24;;;;;;;8.73;7.93;;;8.50;99.90;;;;;;5079245;28;20224;-59
2021/12/14 05:32:59;;;;;;;7.60;6.68;;;8.50;99.90;;;;;;5078789;28;20618;-60
2021/12/14 05:35:26;;;;;;;7.35;6.40;;;8.50;99.90;;;;;;5076683;28;20191;-61
2021/12/14 05:37:54;;;;;;;8.05;7.20;;;8.50;99.90;;;;;;5075903;28;20201;-61
2021/12/14 05:40:40;;;;;;;8.27;7.30;;;8.50;99.90;;;;;;5075471;28;20232;-61
2021/12/14 05:43:08;;;;;;;8.70;7.80;;;8.50;99.90;;;;;;5076651;28;20208;-60
2021/12/14 05:45:42;;;;;;;8.63;7.38;;;8.50;99.90;;;;;;5077476;28;20203;-62
2021/12/14 05:48:11;;;;;;;9.88;7.28;;;8.50;99.90;;;;;;5078654;28;20216;-60
2021/12/14 05:50:45;;;;;;;8.25;7.03;;;8.50;99.90;;;;;;5076708;28;20205;-60
2021/12/14 05:53:20;;;;;;;8.80;7.90;;;8.60;99.90;;;;;;5076166;28;20189;-62
2021/12/14 05:55:47;;;;;;;10.80;8.30;;;8.60;99.90;;;;;;5076421;28;20215;-60
2021/12/14 05:58:16;;;;;;;8.52;7.60;;;8.60;99.90;;;;;;5076628;28;20228;-60
2021/12/14 06:00:48;;;;;;;12.90;8.70;;;8.60;99.90;;;;;;5076359;28;20205;-60
2021/12/14 06:03:19;;;;;;;11.40;9.38;;;8.60;99.90;;;;;;5075713;28;20645;-60
2021/12/14 06:05:46;;;;;;;14.20;10.82;;;8.60;99.90;;;;;;5077075;28;20193;-60
2021/12/14 06:08:22;;;;;;;10.55;8.27;;;8.60;99.90;;;;;;5077648;28;20832;-59
2021/12/14 06:10:50;;;;;;;9.63;8.52;;;8.60;99.90;;;;;;5077542;28;20204;-60
2021/12/14 06:13:18;;;;;;;10.00;9.00;;;8.60;99.90;;;;;;5077324;28;20201;-64
2021/12/14 06:15:47;;;;;;;12.73;8.95;;;8.60;99.90;;;;;;5077009;28;20687;-62
2021/12/14 06:18:23;;;;;;;9.63;8.35;;;8.60;99.90;;;;;;5078028;28;20201;-63
2021/12/14 06:20:51;;;;;;;9.02;8.13;;;8.60;99.90;;;;;;5077129;28;20196;-63
2021/12/14 06:23:24;;;;;;;9.30;7.57;;;8.60;99.90;;;;;;5076120;28;20201;-62
2021/12/14 06:25:52;;;;;;;11.05;7.65;;;8.60;99.90;;;;;;5076933;28;20220;-61
2021/12/14 06:28:24;;;;;;;11.32;9.10;;;8.60;99.90;;;;;;5076081;28;20221;-63
2021/12/14 06:30:54;;;;;;;9.57;8.57;;;8.60;99.90;;;;;;5074800;28;20190;-63
2021/12/14 06:33:21;;;;;;;10.20;8.35;;;8.60;99.90;;;;;;5076529;28;20193;-62
2021/12/14 06:35:51;;;;;;;10.85;7.95;;;8.60;99.90;;;;;;5076084;28;20216;-61
2021/12/14 06:38:29;;;;;;;9.50;8.50;;;8.60;99.90;;;;;;5075029;28;20664;-63
2021/12/14 06:41:05;;;;;;;10.98;9.57;;;8.60;99.90;;;;;;5074929;28;20582;-62
2021/12/14 06:43:35;;;;;;;11.90;8.07;;;8.60;99.90;;;;;;5075136;28;20181;-62
2021/12/14 06:46:07;;;;;;;10.45;7.80;;;8.60;99.90;;;;;;5075833;28;20200;-63
2021/12/14 06:48:38;;;;;;;10.63;8.63;;;8.60;99.90;;;;;;5074420;28;20232;-63
2021/12/14 06:51:09;;;;;;;10.25;7.57;;;8.60;99.90;;;;;;5074105;28;20285;-63
2021/12/14 06:53:36;;;;;;;12.95;7.80;;;8.60;99.90;;;;;;5074549;28;20186;-62
2021/12/14 06:56:06;;;;;;;12.30;9.00;;;8.60;99.90;;;;;;5074337;28;20205;-62
2021/12/14 06:58:37;;;;;;;9.32;8.18;;;8.60;99.90;;;;;;5075205;28;20221;-62
2021/12/14 07:01:11;;;;;;;11.13;9.37;;;8.60;99.90;;;;;;5073661;28;20481;-65
2021/12/14 07:03:42;;;;;;;9.02;8.13;;;8.60;99.90;;;;;;5073692;28;20459;-66
2021/12/14 07:06:11;;;;;;;11.30;8.90;;;8.60;99.90;;;;;;5074193;28;20181;-64
2021/12/14 07:08:38;;;;;;;13.65;8.55;;;8.60;99.90;;;;;;5073752;28;20227;-63
2021/12/14 07:11:05;;;;;;;10.77;8.85;;;8.60;99.90;;;;;;5074554;28;20212;-64
2021/12/14 07:13:39;;;;;;;13.13;9.38;;;8.70;99.90;;;;;;5074632;28;20211;-62
2021/12/14 07:16:20;;;;;;;12.98;10.02;;;8.70;99.90;;;;;;5073825;28;20196;-65
2021/12/14 07:18:52;;;;;;;12.00;9.05;;;8.70;99.90;;;;;;5073954;28;20220;-64
2021/12/14 07:21:38;;;;;;;9.75;8.30;;;8.70;99.90;;;;;;5074751;28;20185;-64
2021/12/14 07:24:29;;;;;;;14.05;10.30;;;8.60;99.90;;;;;;5073975;28;20185;-64
2021/12/14 07:27:16;;;;;;;13.88;8.63;;;8.60;99.90;;;;;;5074043;28;20205;-64
2021/12/14 07:29:43;;;;;;;10.90;9.80;;;8.60;99.90;;;;;;5074160;28;20244;-63
2021/12/14 07:32:12;;;;;;;13.05;8.65;;;8.70;99.90;;;;;;5074031;28;20201;-63
2021/12/14 07:34:39;;;;;;;13.00;9.20;;;8.70;99.90;;;;;;5073583;28;20208;-63
2021/12/14 07:37:06;;;;;;;15.45;10.27;;;8.70;99.90;;;;;;5073797;28;20212;-63
2021/12/14 07:39:33;;;;;;;13.05;10.75;;;8.70;99.90;;;;;;5073861;28;20221;-64
2021/12/14 07:42:01;;;;;;;12.95;10.82;;;8.70;99.90;;;;;;5073519;28;20204;-64
2021/12/14 07:44:32;;;;;;;9.90;8.65;;;8.70;99.90;;;;;;5073415;28;20208;-64
2021/12/14 07:47:02;;;;;;;13.32;10.40;;;8.70;99.90;;;;;;5073197;28;20196;-62
2021/12/14 07:49:34;;;;;;;15.45;9.98;;;8.70;99.90;;;;;;5073581;28;20228;-65
2021/12/14 07:52:05;;;;;;;12.55;10.80;;;8.70;99.90;;;;;;5073656;28;20695;-64
2021/12/14 07:54:37;;;;;;;12.25;10.77;;;8.70;99.90;;;;;;5074416;28;20185;-65
2021/12/14 07:57:08;;;;;;;14.65;11.23;;;8.70;99.90;;;;;;5074116;28;20196;-65
2021/12/14 07:59:38;;;;;;;12.40;10.68;;;8.70;99.90;;;;;;5074486;28;20213;-62
2021/12/14 08:02:14;;;;;;;14.90;12.60;;;8.70;99.90;;;;;;5077325;28;20664;-66
2021/12/14 08:04:46;;;;;;;15.77;11.68;;;8.70;99.90;;;;;;5082161;28;20192;-65
2021/12/14 08:07:24;;;;;;;15.45;12.13;;;8.70;99.90;;;;;;5077479;28;20212;-63
2021/12/14 08:09:54;;;;;;;13.43;12.02;;;8.70;99.90;;;;;;5080653;28;20225;-64
2021/12/14 08:12:33;;;;;;;15.45;12.57;;;8.80;99.90;;;;;;5083401;28;20201;-65
2021/12/14 08:15:06;;;;;;;17.40;13.93;;;8.80;99.90;;;;;;5073467;28;20188;-65
2021/12/14 08:17:33;;;;;;;15.13;12.98;;;8.80;99.90;;;;;;5073805;28;20192;-62
2021/12/14 08:20:01;;;;;;;15.88;13.55;;;8.80;99.90;;;;;;5073596;28;20700;-62
2021/12/14 08:22:31;;;;;;;14.23;12.70;;;8.80;99.90;;;;;;5073274;28;20649;-63
2021/12/14 08:24:59;;;;;;;16.50;13.45;;;8.80;99.90;;;;;;5072896;28;20208;-64
2021/12/14 08:27:28;;;;;;;18.23;14.85;;;8.80;99.90;;;;;;5073110;28;20205;-64
2021/12/14 08:29:59;;;;;;;18.25;14.32;;;8.80;99.90;;;;;;5073102;28;20228;-64
2021/12/14 08:32:33;;;;;;;17.55;13.50;;;8.80;99.90;;;;;;5074033;28;20545;-64
2021/12/14 08:35:04;;;;;;;22.50;15.90;;;8.80;99.90;;;;;;5073357;28;20196;-62
2021/12/14 08:37:36;;;;;;;17.90;15.07;;;8.90;99.90;;;;;;5073532;28;20185;-63
2021/12/14 08:40:09;;;;;;;22.50;15.45;;;8.90;99.90;;;;;;5073913;28;20266;-64
2021/12/14 08:42:43;;;;;;;22.15;15.55;;;8.90;99.90;;;;;;5073287;28;20188;-62
2021/12/14 08:45:27;;;;;;;20.90;16.15;;;9.00;99.90;;;;;;5073095;28;20189;-63
2021/12/14 08:48:06;;;;;;;19.23;15.70;;;9.00;99.90;;;;;;5073759;28;20210;-62
2021/12/14 08:50:38;;;;;;;18.25;15.63;;;9.00;99.90;;;;;;5073316;28;20184;-64
2021/12/14 08:53:08;;;;;;;20.13;15.60;;;9.00;99.90;;;;;;5073104;28;20212;-63
2021/12/14 08:55:37;;;;;;;20.00;15.93;;;9.10;99.90;;;;;;5076629;28;20209;-63
2021/12/14 08:58:05;;;;;;;21.83;15.82;;;9.10;99.90;;;;;;5078668;28;20695;-63
2021/12/14 09:00:37;;;;;;;19.20;16.10;;;9.10;99.90;;;;;;5077854;28;20207;-63
2021/12/14 09:03:07;;;;;;;15.88;13.57;;;9.20;99.90;;;;;;5077032;28;20193;-63
2021/12/14 09:05:38;;;;;;;17.48;15.48;;;9.20;99.90;;;;;;5076595;28;20212;-63
2021/12/14 09:08:06;;;;;;;17.58;14.57;;;9.20;99.90;;;;;;5076951;28;20236;-63
2021/12/14 09:10:37;;;;;;;18.02;14.77;;;9.30;99.90;;;;;;5076488;28;20208;-63
2021/12/14 09:13:09;;;;;;;17.20;15.32;;;9.30;99.90;;;;;;5076876;28;20216;-62
2021/12/14 09:15:40;;;;;;;17.98;16.05;;;9.30;99.90;;;;;;5076638;28;20193;-61
2021/12/14 09:18:08;;;;;;;20.35;16.83;;;9.30;99.90;;;;;;5076091;28;20193;-63
2021/12/14 09:20:40;;;;;;;18.00;16.10;;;9.40;99.90;;;;;;5076240;28;20213;-63
2021/12/14 09:23:10;;;;;;;17.52;15.52;;;9.40;99.90;;;;;;5076081;28;20190;-63
2021/12/14 09:25:39;;;;;;;18.40;16.30;;;9.40;99.90;;;;;;5076304;28;20184;-63
2021/12/14 09:28:08;;;;;;;21.60;16.50;;;9.40;99.90;;;;;;5076256;28;20208;-60
2021/12/14 09:30:38;;;;;;;16.95;15.20;;;9.40;99.90;;;;;;5075945;28;20227;-62
2021/12/14 09:33:06;;;;;;;18.52;16.25;;;9.40;99.90;;;;;;5075969;28;20200;-63
2021/12/14 09:35:36;;;;;;;21.08;17.35;;;9.40;99.90;;;;;;5076093;28;20201;-63
2021/12/14 09:38:05;;;;;;;20.38;16.73;;;9.50;99.90;;;;;;5075575;28;20603;-63
2021/12/14 09:40:38;;;;;;;19.60;16.30;;;9.50;99.90;;;;;;5075488;28;20240;-62
2021/12/14 09:43:09;;;;;;;22.95;18.95;;;9.50;99.90;;;;;;5075811;28;20193;-63
2021/12/14 09:45:42;;;;;;;20.25;17.00;;;9.60;99.90;;;;;;5075667;28;20189;-64
2021/12/14 09:48:12;;;;;;;18.65;16.70;;;9.60;99.90;;;;;;5075857;28;20212;-64
2021/12/14 09:50:43;;;;;;;20.08;17.33;;;9.70;99.90;;;;;;5075735;28;20722;-63
2021/12/14 09:53:13;;;;;;;22.67;17.63;;;9.80;99.90;;;;;;5077460;28;20192;-63
2021/12/14 09:55:43;;;;;;;18.73;15.33;;;9.80;99.90;;;;;;5075932;28;20450;-62
2021/12/14 09:58:13;;;;;;;21.52;15.00;;;9.90;99.90;;;;;;5076212;28;20443;-62
2021/12/14 10:00:45;;;;;;;20.27;15.90;;;9.90;99.90;;;;;;5076258;28;20208;-63
2021/12/14 10:03:14;;;;;;;19.10;16.83;;;10.00;99.90;;;;;;5075705;28;20439;-64
2021/12/14 10:05:48;;;;;;;17.93;16.13;;;10.00;99.90;;;;;;5075092;28;20205;-62
2021/12/14 10:08:18;;;;;;;19.00;14.70;;;10.10;99.90;;;;;;5074757;28;20478;-62
2021/12/14 10:10:52;;;;;;;20.23;16.47;;;10.10;99.90;;;;;;5074871;28;20533;-63
2021/12/14 10:13:20;;;;;;;20.63;17.47;;;10.10;99.90;;;;;;5074983;28;20471;-63
2021/12/14 10:15:51;;;;;;;19.87;16.70;;;10.10;99.90;;;;;;5074938;28;20443;-63
2021/12/14 10:18:21;;;;;;;20.30;15.30;;;10.10;99.90;;;;;;5074560;28;20428;-64
2021/12/14 10:23:27;;;;;;;20.30;16.37;;;10.10;99.90;;;;;;5053845;28;20940;-59
2021/12/14 10:25:55;;;;;;;20.17;16.23;;;10.10;99.90;;;;;;5054527;28;20812;-59
2021/12/14 10:28:23;;;;;;;18.70;15.30;;;10.10;99.90;;;;;;5054389;28;20936;-59
2021/12/14 10:30:56;;;;;;;19.17;15.93;;;10.20;99.90;;;;;;5054182;28;20518;-59
2021/12/14 10:33:24;;;;;;;17.30;14.40;;;10.30;99.90;;;;;;5054260;28;20563;-59
2021/12/14 10:35:57;;;;;;;17.00;15.20;;;10.40;99.90;;;;;;5054540;28;20451;-58
2021/12/14 10:38:35;;;;;;;15.43;13.83;;;10.40;99.70;;;;;;5054108;28;20523;-59
2021/12/14 10:43:52;;;;;;;18.93;15.43;;;10.50;99.20;;;;;;5054258;28;20970;-58
2021/12/14 10:46:24;;;;;;;15.30;13.70;;;10.40;98.80;;;;;;5054064;28;20928;-59
2021/12/14 10:49:01;;;;;;;15.53;13.83;;;10.40;98.90;;;;;;5054594;28;20459;-59
2021/12/14 10:51:32;;;;;;;16.10;13.63;;;10.40;98.70;;;;;;5054043;28;20474;-58
2021/12/14 10:54:02;;;;;;;16.43;13.70;;;10.40;98.70;;;;;;5053940;28;20433;-59
2021/12/14 10:56:35;;;;;;;15.20;13.03;;;10.30;98.60;;;;;;5054282;28;20451;-59
2021/12/14 10:59:07;;;;;;;15.70;13.63;;;10.30;98.60;;;;;;5053257;28;20856;-58
2021/12/14 11:01:35;;;;;;;17.50;14.37;;;10.20;98.70;;;;;;5052993;28;20472;-59
2021/12/14 11:04:07;;;;;;;16.00;14.10;;;10.20;98.80;;;;;;5053722;28;20543;-58
2021/12/14 11:06:36;;;;;;;17.83;15.17;;;10.20;98.70;;;;;;5053734;28;20440;-58
2021/12/14 11:11:55;;;;;;;16.00;14.30;;;10.10;98.80;;;;;;5053487;28;20448;-58
2021/12/14 11:14:25;;;;;;;16.53;14.50;;;10.10;99.00;;;;;;5053651;28;20628;-58
2021/12/14 11:19:43;;;;;;;17.10;15.00;;;10.10;99.10;;;;;;5053567;28;20490;-59
2021/12/14 11:22:15;;;;;;;19.93;15.17;;;10.20;99.10;;;;;;5053076;28;20480;-58
2021/12/14 11:24:46;;;;;;;16.80;13.73;;;10.10;99.10;;;;;;5053418;28;20499;-58
2021/12/14 11:27:16;;;;;;;18.43;14.67;;;10.10;99.20;;;;;;5053343;28;20443;-59
2021/12/14 11:29:44;;;;;;;15.60;13.80;;;10.10;99.30;;;;;;5052970;28;20611;-59
2021/12/14 11:32:19;;;;;;;15.10;13.50;;;10.10;99.30;;;;;;5053167;28;20459;-58
2021/12/14 11:34:47;;;;;;;19.80;14.87;;;10.10;99.50;;;;;;5053009;28;20424;-59
2021/12/14 11:37:20;;;;;;;16.73;14.13;;;10.10;99.60;;;;;;5052917;28;20455;-58
2021/12/14 11:39:51;;;;;;;17.48;15.27;;;10.10;99.70;;;;;;5053844;28;20440;-58
2021/12/14 11:42:24;;;;;;;15.27;13.57;;;10.10;99.70;;;;;;5053243;28;20224;-60
2021/12/14 11:44:55;;;;;;;17.53;13.33;;;10.10;99.70;;;;;;5053048;28;20433;-59
2021/12/14 11:47:41;;;;;;;17.97;14.63;;;10.10;99.70;;;;;;5052933;28;20443;-59
2021/12/14 11:50:17;;;;;;;16.08;14.38;;;10.10;99.70;;;;;;5053014;28;20472;-58
2021/12/14 11:52:53;;;;;;;16.55;14.82;;;10.10;99.80;;;;;;5052724;28;20775;-57
2021/12/14 11:55:35;;;;;;;17.00;14.97;;;10.10;99.90;;;;;;5052824;28;20189;-57
2021/12/14 11:58:11;;;;;;;16.27;14.18;;;10.20;99.90;;;;;;5052043;28;20436;-57
2021/12/14 12:00:43;;;;;;;16.33;14.63;;;10.20;99.90;;;;;;5052760;28;20551;-58
2021/12/14 12:03:43;;;;;;;18.48;15.18;;;10.10;99.80;;;;;;5052694;28;20232;-59
2021/12/14 12:06:32;;;;;;;19.13;15.60;;;10.10;99.90;;;;;;5049880;28;20581;-58
2021/12/14 12:11:48;;;;;;;16.33;14.63;;;10.10;99.90;;;;;;5052858;28;20462;-59
2021/12/14 12:14:25;;;;;;;18.17;16.02;;;10.10;99.90;;;;;;5053649;28;20432;-59
2021/12/14 12:16:58;;;;;;;18.97;14.17;;;10.10;99.90;;;;;;5052456;28;20641;-58
2021/12/14 12:19:29;;;;;;;19.73;15.10;;;10.00;99.90;;;;;;5052528;28;20455;-58
2021/12/14 12:22:05;;;;;;;18.80;15.90;;;10.10;99.90;;;;;;5052508;28;20475;-58
2021/12/14 12:24:46;;;;;;;17.67;15.03;;;10.10;99.90;;;;;;5053158;28;20182;-59
2021/12/14 12:27:41;;;;;;;18.95;16.27;;;10.10;99.90;;;;;;5052445;28;20829;-58
2021/12/14 12:30:36;;;;;;;17.40;15.13;;;10.10;99.90;;;;;;5052233;28;20749;-59
2021/12/14 12:33:21;;;;;;;17.23;14.70;;;10.10;99.90;;;;;;5056597;28;20468;-58
2021/12/14 12:35:52;;;;;;;17.97;14.30;;;10.10;99.90;;;;;;5056527;28;20916;-59
2021/12/14 12:38:31;;;;;;;17.30;14.17;;;10.10;99.90;;;;;;5056636;28;20420;-59
2021/12/14 12:41:04;;;;;;;17.57;14.40;;;10.10;99.90;;;;;;5057133;28;20435;-58
2021/12/14 12:43:35;;;;;;;21.33;16.50;;;10.10;99.90;;;;;;5057067;28;20439;-59
2021/12/14 12:46:14;;;;;;;19.55;15.00;;;10.10;99.90;;;;;;5056362;28;20443;-58
2021/12/14 12:48:55;;;;;;;17.90;14.70;;;10.10;99.90;;;;;;5056058;28;20182;-59
2021/12/14 12:51:54;;;;;;;17.30;15.43;;;10.10;99.90;;;;;;5055989;28;20483;-59
2021/12/14 12:54:32;;;;;;;19.53;15.60;;;10.10;99.90;;;;;;5056040;28;20190;-57
2021/12/14 12:57:15;;;;;;;25.60;15.87;;;10.00;99.90;;;;;;5056263;28;20431;-59
2021/12/14 12:59:49;;;;;;;21.20;15.97;;;10.00;99.90;;;;;;5056048;28;20428;-57
2021/12/14 13:02:25;;;;;;;21.20;16.87;;;9.90;99.90;;;;;;5055878;28;20466;-57
2021/12/14 13:04:55;;;;;;;20.17;15.37;;;9.90;99.90;;;;;;5056520;28;20490;-59
2021/12/14 13:07:34;;;;;;;18.70;16.23;;;10.00;99.90;;;;;;5056313;28;20431;-57
2021/12/14 13:10:06;;;;;;;16.90;15.10;;;10.00;99.90;;;;;;5056205;28;21053;-59
2021/12/14 13:12:50;;;;;;;20.50;15.23;;;10.00;99.90;;;;;;5056655;28;20468;-58
2021/12/14 13:15:43;;;;;;;18.35;14.68;;;10.00;99.90;;;;;;5055688;28;20428;-59
2021/12/14 13:18:33;;;;;;;19.42;15.02;;;9.80;99.90;;;;;;5055870;28;20231;-58
2021/12/14 13:21:13;;;;;;;20.17;16.80;;;9.70;99.90;;;;;;5024051;28;20205;-58
2021/12/14 13:24:02;;;;;;;19.23;14.73;;;9.60;99.90;;;;;;5055539;28;20511;-58
2021/12/14 13:26:48;;;;;;;19.33;15.52;;;9.50;99.90;;;;;;5055394;28;20182;-58
2021/12/14 13:29:31;;;;;;;20.00;16.95;;;9.50;99.90;;;;;;5054440;28;20208;-60
2021/12/14 13:32:02;;;;;;;19.88;15.85;;;9.50;99.90;;;;;;5055133;28;20716;-59
2021/12/14 13:34:33;;;;;;;17.58;15.68;;;9.50;99.90;;;;;;5055376;28;20185;-58
2021/12/14 13:37:02;;;;;;;23.63;17.20;;;9.50;99.90;;;;;;5055641;28;20197;-57
2021/12/14 13:39:31;;;;;;;18.80;15.97;;;9.50;99.90;;;;;;5055045;28;20582;-58